Time;durP1;ratioP1;P1;durP2;ratioP2;P2;SDS_P1;SDS_P2;PMS_P1;PMS_P2;Temp;Humidity;BMP_temperature;BMP_pressure;BME280_temperature;BME280_humidity;BME280_pressure;Samples;Min_cycle;Max_cycle;Signal;HPM_P1;HPM_P2
2022/01/19 00:00:03;;;;;;;15.95;7.90;;;22.60;38.60;;;;;;6100418;28;80496;-64
2022/01/19 00:03:03;;;;;;;15.60;7.32;;;22.60;39.00;;;;;;6089706;28;81877;-64
2022/01/19 00:06:07;;;;;;;15.07;7.78;;;22.60;38.90;;;;;;6109169;28;80557;-65
2022/01/19 00:09:08;;;;;;;16.65;7.95;;;22.60;38.80;;;;;;6105187;28;82300;-65
2022/01/19 00:12:08;;;;;;;15.85;7.70;;;22.50;38.70;;;;;;6090475;28;82938;-65
2022/01/19 00:15:09;;;;;;;14.30;7.30;;;22.50;38.60;;;;;;6102031;28;80157;-65
2022/01/19 00:18:09;;;;;;;14.77;7.30;;;22.50;38.60;;;;;;6100337;28;80808;-64
2022/01/19 00:21:10;;;;;;;14.80;7.18;;;22.50;38.70;;;;;;6102364;28;80597;-64
2022/01/19 00:24:10;;;;;;;14.65;7.35;;;22.50;39.50;;;;;;6096813;28;81407;-63
2022/01/19 00:27:11;;;;;;;15.45;7.07;;;22.50;39.60;;;;;;6109156;28;81325;-64
2022/01/19 00:30:12;;;;;;;14.32;6.97;;;22.50;39.70;;;;;;6086014;28;82229;-63
2022/01/19 00:33:13;;;;;;;16.90;7.38;;;22.50;39.80;;;;;;6104487;28;80429;-63
2022/01/19 00:36:14;;;;;;;15.65;7.60;;;22.50;39.60;;;;;;6085931;28;83760;-64
2022/01/19 00:39:14;;;;;;;13.25;6.85;;;22.50;39.70;;;;;;6105806;28;81804;-64
2022/01/19 00:42:15;;;;;;;13.50;6.65;;;22.50;39.60;;;;;;6088128;28;81836;-64
2022/01/19 00:45:15;;;;;;;14.68;6.85;;;22.50;39.60;;;;;;6102206;28;80725;-65
2022/01/19 00:48:16;;;;;;;14.25;7.28;;;22.50;39.60;;;;;;6108359;28;80484;-64
2022/01/19 00:51:16;;;;;;;14.73;6.72;;;22.50;39.80;;;;;;6104317;28;80522;-65
2022/01/19 00:54:17;;;;;;;12.85;6.22;;;22.50;39.90;;;;;;6106494;28;80871;-64
2022/01/19 00:57:17;;;;;;;13.52;6.53;;;22.50;39.80;;;;;;6090464;28;81527;-64
2022/01/19 01:00:18;;;;;;;17.45;7.40;;;22.50;40.00;;;;;;6110194;28;80183;-64
2022/01/19 01:03:18;;;;;;;19.85;7.65;;;22.50;39.60;;;;;;6107260;28;80927;-64
2022/01/19 01:06:20;;;;;;;12.70;6.78;;;22.50;39.60;;;;;;6100628;28;80537;-65
2022/01/19 01:09:23;;;;;;;14.68;6.70;;;22.50;39.40;;;;;;6101086;28;80343;-65
2022/01/19 01:12:32;;;;;;;15.55;7.38;;;22.40;39.20;;;;;;6094279;28;81695;-65
2022/01/19 01:18:39;;;;;;;14.27;6.78;;;22.50;39.20;;;;;;6108011;28;81653;-64
2022/01/19 01:21:39;;;;;;;16.10;7.25;;;22.50;38.90;;;;;;6084663;28;83573;-64
2022/01/19 01:24:40;;;;;;;14.02;7.20;;;22.50;38.80;;;;;;6086986;28;83948;-64
2022/01/19 01:27:40;;;;;;;13.55;7.38;;;22.50;38.80;;;;;;6084026;28;83327;-65
2022/01/19 01:30:41;;;;;;;15.43;7.32;;;22.50;38.50;;;;;;6089929;28;82769;-64
2022/01/19 01:33:42;;;;;;;13.10;7.05;;;22.40;38.30;;;;;;6088186;28;83156;-64
2022/01/19 01:36:43;;;;;;;15.05;7.07;;;22.40;38.20;;;;;;6106817;28;83170;-64
2022/01/19 01:39:44;;;;;;;15.82;7.35;;;22.40;38.20;;;;;;6100030;28;80809;-64
2022/01/19 01:42:44;;;;;;;15.20;7.22;;;22.40;38.10;;;;;;6076461;28;83033;-65
2022/01/19 01:45:50;;;;;;;15.27;7.13;;;22.40;38.00;;;;;;6088591;28;83609;-65
2022/01/19 01:48:50;;;;;;;14.23;7.40;;;22.40;38.30;;;;;;6071226;28;81777;-65
2022/01/19 01:55:12;;;;;;;12.02;6.72;;;22.50;38.40;;;;;;6087224;28;83491;-65
2022/01/19 01:58:12;;;;;;;12.55;6.50;;;22.40;38.30;;;;;;6089513;28;82770;-64
2022/01/19 02:01:14;;;;;;;14.45;6.60;;;22.50;38.40;;;;;;6088618;28;81226;-64
2022/01/19 02:04:16;;;;;;;14.05;6.45;;;22.40;38.30;;;;;;6089498;28;80468;-64
2022/01/19 02:10:56;;;;;;;11.35;6.10;;;22.40;38.30;;;;;;6091213;28;82969;-64
2022/01/19 02:23:56;;;;;;;14.25;5.95;;;22.40;38.30;;;;;;6107021;28;81428;-64
2022/01/19 02:28:54;;;;;;;13.57;6.25;;;22.40;38.30;;;;;;6099009;28;83348;-65
2022/01/19 02:40:15;;;;;;;11.40;6.03;;;22.40;38.00;;;;;;6110308;28;81882;-64
2022/01/19 02:43:22;;;;;;;10.23;4.90;;;22.40;38.00;;;;;;6083131;28;82258;-64
2022/01/19 02:49:42;;;;;;;11.23;5.15;;;22.40;37.90;;;;;;6093509;28;81478;-63
2022/01/19 02:52:42;;;;;;;8.45;4.82;;;22.40;37.70;;;;;;6111271;28;81691;-64
2022/01/19 02:55:44;;;;;;;11.18;5.28;;;22.40;37.50;;;;;;6093571;28;81448;-64
2022/01/19 02:58:45;;;;;;;7.53;4.20;;;22.40;37.60;;;;;;6090513;28;81319;-64
2022/01/19 03:08:47;;;;;;;10.40;4.65;;;22.40;37.40;;;;;;6074041;28;84796;-64
2022/01/19 03:11:52;;;;;;;6.80;3.90;;;22.40;37.80;;;;;;6080062;28;83882;-64
2022/01/19 03:14:52;;;;;;;9.18;4.05;;;22.40;38.60;;;;;;6075657;28;83439;-64
2022/01/19 03:17:57;;;;;;;11.85;4.75;;;22.40;37.40;;;;;;6083903;28;83599;-64
2022/01/19 03:20:58;;;;;;;8.55;3.65;;;22.40;37.40;;;;;;6085848;28;83181;-64
2022/01/19 03:23:59;;;;;;;10.55;4.10;;;22.40;37.40;;;;;;6091868;28;82694;-64
2022/01/19 03:27:00;;;;;;;9.10;3.97;;;22.50;37.00;;;;;;6109817;28;80601;-64
2022/01/19 03:30:17;;;;;;;7.95;3.63;;;22.60;37.00;;;;;;6094063;28;81805;-64
2022/01/19 03:33:17;;;;;;;6.93;3.72;;;22.60;36.90;;;;;;6086320;28;81700;-64
2022/01/19 03:36:18;;;;;;;10.07;3.65;;;22.70;36.80;;;;;;6096957;28;80334;-65
2022/01/19 03:39:19;;;;;;;10.80;3.67;;;22.70;36.60;;;;;;6092221;28;83754;-65
2022/01/19 03:42:19;;;;;;;8.63;3.97;;;22.70;36.70;;;;;;6107779;28;82100;-64
2022/01/19 03:45:20;;;;;;;8.75;3.60;;;22.80;36.60;;;;;;6076748;28;83292;-64
2022/01/19 03:48:45;;;;;;;6.18;3.47;;;22.80;36.60;;;;;;6095269;28;82931;-64
2022/01/19 03:51:46;;;;;;;7.28;3.70;;;22.80;36.50;;;;;;6084961;28;81579;-64
2022/01/19 03:54:46;;;;;;;6.15;2.97;;;22.80;36.50;;;;;;6111187;28;80568;-65
2022/01/19 03:57:47;;;;;;;7.60;3.55;;;22.90;36.50;;;;;;6091340;28;82934;-65
2022/01/19 04:00:53;;;;;;;5.97;3.08;;;22.90;36.50;;;;;;6089016;28;82192;-64
2022/01/19 04:07:10;;;;;;;6.72;3.13;;;23.00;36.50;;;;;;6071816;28;83475;-65
2022/01/19 04:10:12;;;;;;;11.35;3.28;;;23.00;36.40;;;;;;6085441;28;82964;-64
2022/01/19 04:13:32;;;;;;;8.75;3.30;;;23.00;36.50;;;;;;6107254;28;82008;-65
2022/01/19 04:16:33;;;;;;;5.15;2.60;;;23.00;36.40;;;;;;6081969;28;82020;-64
2022/01/19 04:19:47;;;;;;;8.10;3.10;;;23.00;36.40;;;;;;6074964;28;80896;-64
2022/01/19 04:22:54;;;;;;;6.28;3.10;;;23.00;36.30;;;;;;6091648;28;81914;-64
2022/01/19 04:25:55;;;;;;;5.28;2.80;;;23.00;36.30;;;;;;6075177;28;83665;-65
2022/01/19 04:28:56;;;;;;;6.38;3.10;;;23.10;36.20;;;;;;6091799;28;83003;-66
2022/01/19 04:31:57;;;;;;;5.93;2.70;;;23.10;36.20;;;;;;6093941;28;80693;-66
2022/01/19 04:34:59;;;;;;;7.38;3.35;;;23.10;36.20;;;;;;6090473;28;83240;-64
2022/01/19 04:38:40;;;;;;;5.55;2.75;;;23.10;36.00;;;;;;6090189;28;81921;-66
2022/01/19 04:45:21;;;;;;;8.40;3.25;;;23.10;36.00;;;;;;6086734;28;83476;-66
2022/01/19 05:01:41;;;;;;;5.53;2.83;;;23.20;35.70;;;;;;6087039;28;83491;-65
2022/01/19 05:05:17;;;;;;;;;;;23.20;35.80;;;;;;6090335;28;82838;-65
2022/01/19 05:14:39;;;;;;;5.10;2.60;;;23.30;35.80;;;;;;6088257;28;80259;-65
2022/01/19 05:17:40;;;;;;;5.43;3.10;;;23.20;35.80;;;;;;6075992;28;83015;-65
2022/01/19 05:20:41;;;;;;;8.55;3.63;;;23.20;35.90;;;;;;6077837;28;82645;-65
2022/01/19 05:23:43;;;;;;;7.90;3.17;;;23.20;35.80;;;;;;6085197;28;81450;-64
2022/01/19 05:26:45;;;;;;;6.28;3.05;;;23.20;35.90;;;;;;6084065;28;81897;-62
2022/01/19 05:29:52;;;;;;;10.05;3.50;;;23.20;35.90;;;;;;6092656;28;81776;-65
2022/01/19 05:32:53;;;;;;;9.88;3.35;;;23.30;36.40;;;;;;6085975;28;83173;-63
2022/01/19 05:35:54;;;;;;;10.45;3.50;;;23.30;36.50;;;;;;6104577;28;80363;-63
2022/01/19 05:39:14;;;;;;;6.07;2.90;;;23.30;36.70;;;;;;6067185;28;80334;-64
2022/01/19 05:42:19;;;;;;;5.35;2.83;;;23.30;36.40;;;;;;6083702;28;81433;-65
2022/01/19 05:45:22;;;;;;;5.45;2.88;;;23.40;36.80;;;;;;6076750;28;83042;-65
2022/01/19 05:48:24;;;;;;;5.40;2.45;;;23.40;37.30;;;;;;6072867;28;82500;-64
2022/01/19 05:51:27;;;;;;;5.90;2.85;;;23.40;38.90;;;;;;6082267;28;82611;-64
2022/01/19 05:54:27;;;;;;;9.55;3.53;;;23.40;37.20;;;;;;6104040;28;80565;-65
2022/01/19 05:57:28;;;;;;;8.13;3.05;;;23.40;38.80;;;;;;6088702;28;83338;-65
2022/01/19 06:00:28;;;;;;;4.60;2.67;;;23.40;38.00;;;;;;6092562;28;86493;-65
2022/01/19 06:03:29;;;;;;;6.30;3.05;;;23.40;37.80;;;;;;6094384;28;80394;-65
2022/01/19 06:06:39;;;;;;;7.57;3.10;;;23.40;37.20;;;;;;6091125;28;83203;-64
2022/01/19 06:13:35;;;;;;;7.72;2.95;;;23.40;38.30;;;;;;6111133;28;80761;-65
2022/01/19 06:16:36;;;;;;;10.93;4.25;;;23.40;37.70;;;;;;6092321;28;81518;-64
2022/01/19 06:19:36;;;;;;;10.20;3.88;;;23.40;37.70;;;;;;6076598;28;82233;-66
2022/01/19 06:22:39;;;;;;;10.38;4.40;;;23.40;37.90;;;;;;6094080;28;82785;-65
2022/01/19 06:25:40;;;;;;;11.20;5.10;;;23.40;38.10;;;;;;6098559;28;82877;-65
2022/01/19 06:28:41;;;;;;;11.80;6.38;;;23.40;38.70;;;;;;6089346;28;81853;-65
2022/01/19 06:31:42;;;;;;;12.32;6.90;;;23.30;39.20;;;;;;6090612;28;82360;-63
2022/01/19 06:34:46;;;;;;;12.95;6.15;;;23.30;40.00;;;;;;6080087;28;82801;-61
2022/01/19 06:37:56;;;;;;;10.18;6.32;;;23.20;40.80;;;;;;6105133;28;80935;-62
2022/01/19 06:41:16;;;;;;;14.23;7.72;;;23.20;42.70;;;;;;6085102;28;84180;-63
2022/01/19 06:44:17;;;;;;;11.15;6.53;;;23.10;44.00;;;;;;6074241;28;81463;-63
2022/01/19 06:47:18;;;;;;;13.65;5.13;;;23.10;44.60;;;;;;6102814;28;80805;-63
2022/01/19 06:50:20;;;;;;;16.45;5.78;;;23.00;45.20;;;;;;6092489;28;82983;-64
2022/01/19 06:53:20;;;;;;;9.27;4.25;;;23.00;46.00;;;;;;6089643;28;82117;-64
2022/01/19 06:56:37;;;;;;;8.27;4.55;;;22.90;46.40;;;;;;6081731;28;83203;-65
2022/01/19 06:59:56;;;;;;;8.25;3.97;;;23.00;46.30;;;;;;6083133;28;81715;-63
2022/01/19 07:03:04;;;;;;;7.95;4.45;;;22.90;46.50;;;;;;6091846;28;84156;-66
2022/01/19 07:06:14;;;;;;;5.70;3.72;;;22.80;47.40;;;;;;6083269;28;83553;-66
2022/01/19 07:09:32;;;;;;;9.30;4.30;;;22.90;47.10;;;;;;6092256;28;83590;-65
2022/01/19 07:12:33;;;;;;;16.70;3.88;;;22.90;47.20;;;;;;6106220;28;80391;-65
2022/01/19 07:15:36;;;;;;;5.50;2.50;;;22.80;47.50;;;;;;6092832;28;81654;-65
2022/01/19 07:18:37;;;;;;;6.15;3.38;;;22.80;47.30;;;;;;6093962;28;81421;-63
2022/01/19 07:21:38;;;;;;;11.15;3.58;;;22.80;46.90;;;;;;6093129;28;80919;-64
2022/01/19 07:24:38;;;;;;;6.13;2.85;;;22.70;47.50;;;;;;6084296;28;83275;-63
2022/01/19 07:27:39;;;;;;;8.13;3.22;;;22.70;47.10;;;;;;6091338;28;82821;-64
2022/01/19 07:30:41;;;;;;;8.23;3.28;;;22.50;47.40;;;;;;6094031;28;80350;-66
2022/01/19 07:33:42;;;;;;;6.10;2.78;;;22.50;47.70;;;;;;6083090;28;82361;-65
2022/01/19 07:36:42;;;;;;;6.35;3.08;;;22.70;48.30;;;;;;6079103;28;83274;-62
2022/01/19 07:39:43;;;;;;;6.40;3.40;;;22.80;47.30;;;;;;6089110;28;82869;-64
2022/01/19 07:42:44;;;;;;;6.65;3.65;;;22.90;46.80;;;;;;6088941;28;83141;-64
2022/01/19 07:46:03;;;;;;;7.70;4.28;;;23.00;46.50;;;;;;6105946;28;80358;-65
2022/01/19 07:49:24;;;;;;;6.57;3.25;;;23.10;46.00;;;;;;6106075;28;80271;-67
2022/01/19 07:52:32;;;;;;;7.15;3.47;;;23.10;45.70;;;;;;6105296;28;81439;-64
2022/01/19 07:55:38;;;;;;;8.57;3.57;;;23.10;45.40;;;;;;6101776;28;80384;-65
2022/01/19 07:59:04;;;;;;;8.52;3.78;;;23.20;45.10;;;;;;6083101;28;83521;-64
2022/01/19 08:02:22;;;;;;;8.43;3.97;;;23.20;44.80;;;;;;6076543;28;86514;-64
2022/01/19 08:05:28;;;;;;;10.23;3.85;;;23.20;43.30;;;;;;6105527;28;80630;-70
2022/01/19 08:08:29;;;;;;;13.35;4.60;;;23.30;44.10;;;;;;6111893;28;80542;-64
2022/01/19 08:11:30;;;;;;;9.63;3.90;;;23.30;42.70;;;;;;6089751;28;83387;-65
2022/01/19 08:14:49;;;;;;;11.43;5.28;;;23.30;42.70;;;;;;6096760;28;80917;-63
2022/01/19 08:17:55;;;;;;;;;;;23.40;42.60;;;;;;6067857;28;81022;-64
2022/01/19 08:20:55;;;;;;;8.15;3.88;;;23.40;41.90;;;;;;6091171;28;81439;-63
2022/01/19 08:24:00;;;;;;;7.13;4.25;;;23.50;42.50;;;;;;6082403;28;80345;-62
2022/01/19 08:27:01;;;;;;;8.98;4.10;;;23.50;42.00;;;;;;6083920;28;82950;-63
2022/01/19 08:30:10;;;;;;;8.93;4.00;;;23.50;41.30;;;;;;6087900;28;82985;-63
2022/01/19 08:33:11;;;;;;;11.82;4.47;;;23.50;41.70;;;;;;6085753;28;82846;-61
2022/01/19 08:36:18;;;;;;;8.10;3.67;;;23.60;42.20;;;;;;6089278;28;82074;-61
2022/01/19 08:39:39;;;;;;;13.13;4.43;;;23.60;41.10;;;;;;6089716;28;81903;-62
2022/01/19 08:42:40;;;;;;;9.10;4.10;;;23.60;41.20;;;;;;6088423;28;82566;-62
2022/01/19 08:45:41;;;;;;;11.07;4.78;;;23.70;41.00;;;;;;6090750;28;83334;-65
2022/01/19 08:48:42;;;;;;;11.93;5.95;;;23.70;41.20;;;;;;6088163;28;83378;-65
2022/01/19 08:51:47;;;;;;;10.90;4.97;;;23.70;40.60;;;;;;6089675;28;83554;-64
2022/01/19 08:54:55;;;;;;;17.45;5.97;;;23.80;40.60;;;;;;6083592;28;82879;-63
2022/01/19 08:57:56;;;;;;;12.32;5.75;;;23.80;40.70;;;;;;6105903;28;81588;-64
2022/01/19 09:00:56;;;;;;;9.32;5.07;;;23.80;40.50;;;;;;6087768;28;80880;-67
2022/01/19 09:03:57;;;;;;;9.38;5.53;;;23.80;40.60;;;;;;6099035;28;80900;-62
2022/01/19 09:06:59;;;;;;;13.98;5.85;;;23.90;41.10;;;;;;6089861;28;81615;-62
2022/01/19 09:09:59;;;;;;;13.40;6.32;;;23.90;41.10;;;;;;6095309;28;80864;-62
2022/01/19 09:13:00;;;;;;;11.52;5.43;;;24.00;42.00;;;;;;6093435;28;81207;-62
2022/01/19 09:16:00;;;;;;;17.95;5.90;;;24.00;42.10;;;;;;6090310;28;80524;-65
2022/01/19 09:19:01;;;;;;;12.85;5.70;;;24.10;42.20;;;;;;6103137;28;80778;-67
2022/01/19 09:22:03;;;;;;;13.80;5.75;;;24.20;42.10;;;;;;6102299;28;81196;-64
2022/01/19 09:25:03;;;;;;;78.85;36.17;;;24.20;42.10;;;;;;6096165;28;80628;-64
2022/01/19 09:28:04;;;;;;;141.40;69.50;;;24.30;42.90;;;;;;6103120;28;83234;-64
2022/01/19 09:31:10;;;;;;;205.63;99.95;;;24.30;42.10;;;;;;6092719;28;83699;-64
2022/01/19 09:34:20;;;;;;;248.48;120.18;;;24.40;41.90;;;;;;6096408;28;84972;-64
2022/01/19 09:37:22;;;;;;;183.25;85.50;;;24.40;42.20;;;;;;6084479;28;86642;-62
2022/01/19 09:40:26;;;;;;;224.00;105.38;;;24.50;42.00;;;;;;6085844;28;84724;-65
2022/01/19 09:43:27;;;;;;;311.73;150.18;;;24.50;42.20;;;;;;6089819;28;86231;-63
2022/01/19 09:46:29;;;;;;;235.98;116.15;;;24.60;42.00;;;;;;6064838;28;87102;-62
2022/01/19 09:49:30;;;;;;;200.60;97.88;;;24.60;41.90;;;;;;6087819;28;85402;-62
2022/01/19 09:52:30;;;;;;;180.73;88.20;;;24.70;42.10;;;;;;6068904;28;84238;-62
2022/01/19 09:55:31;;;;;;;158.18;77.82;;;24.70;41.90;;;;;;6099072;28;83756;-62
2022/01/19 09:58:31;;;;;;;132.82;64.53;;;24.70;41.90;;;;;;6087656;28;83442;-62
2022/01/19 10:01:32;;;;;;;113.32;55.08;;;24.80;41.70;;;;;;6090128;28;84814;-62
2022/01/19 10:04:32;;;;;;;104.68;50.42;;;24.80;41.80;;;;;;6089859;28;83032;-63
2022/01/19 10:07:33;;;;;;;94.75;45.30;;;24.90;41.60;;;;;;6093862;28;83095;-61
2022/01/19 10:10:33;;;;;;;86.45;42.58;;;24.90;41.90;;;;;;6094674;28;83533;-62
2022/01/19 10:17:02;;;;;;;75.50;34.95;;;25.00;41.60;;;;;;6073023;28;85042;-61
2022/01/19 10:20:03;;;;;;;67.78;33.40;;;25.10;41.60;;;;;;6097152;28;83914;-62
2022/01/19 10:23:03;;;;;;;61.15;28.70;;;25.20;41.40;;;;;;6097836;28;84926;-62
2022/01/19 10:26:04;;;;;;;53.65;28.00;;;25.20;41.30;;;;;;6106265;28;83370;-61
2022/01/19 10:29:05;;;;;;;47.72;25.45;;;25.20;41.20;;;;;;6102821;28;83303;-62
2022/01/19 10:32:05;;;;;;;44.70;23.38;;;25.30;41.10;;;;;;6090721;28;84459;-62
2022/01/19 10:35:05;;;;;;;48.17;20.67;;;25.30;41.20;;;;;;6105947;28;83147;-64
2022/01/19 10:38:09;;;;;;;42.28;17.52;;;25.30;41.70;;;;;;6077894;28;83200;-63
2022/01/19 10:41:12;;;;;;;32.25;15.75;;;25.40;42.30;;;;;;6102493;28;87635;-64
2022/01/19 10:44:13;;;;;;;31.38;14.93;;;25.40;42.90;;;;;;6104441;28;83236;-63
2022/01/19 10:47:15;;;;;;;24.77;11.80;;;25.30;43.50;;;;;;6110347;28;83461;-63
2022/01/19 10:50:16;;;;;;;29.83;13.98;;;25.40;43.90;;;;;;6087435;28;84423;-63
2022/01/19 10:53:16;;;;;;;34.53;15.40;;;25.50;44.40;;;;;;6107597;28;83568;-62
2022/01/19 10:56:17;;;;;;;34.92;12.80;;;25.50;44.70;;;;;;6107248;28;83150;-64
2022/01/19 10:59:18;;;;;;;31.63;12.57;;;25.50;45.10;;;;;;6089332;28;84055;-64
2022/01/19 11:02:22;;;;;;;34.58;13.13;;;25.50;45.00;;;;;;6100330;28;83855;-64
2022/01/19 11:05:26;;;;;;;27.52;12.23;;;25.50;44.90;;;;;;6082768;28;83002;-64
2022/01/19 11:08:30;;;;;;;33.22;12.52;;;25.60;45.10;;;;;;6079502;28;83174;-66
2022/01/19 11:11:34;;;;;;;28.48;11.07;;;25.60;44.90;;;;;;6100836;28;83412;-65
2022/01/19 11:14:40;;;;;;;24.52;11.43;;;25.60;44.70;;;;;;6106963;28;83024;-64
2022/01/19 11:17:40;;;;;;;30.77;11.20;;;25.60;44.60;;;;;;6108028;28;83406;-65
2022/01/19 11:20:41;;;;;;;15.55;9.00;;;25.60;44.50;;;;;;6095605;28;82975;-65
2022/01/19 11:23:41;;;;;;;19.25;9.32;;;25.60;44.20;;;;;;6092024;28;84507;-66
2022/01/19 11:26:42;;;;;;;18.90;9.23;;;25.60;44.30;;;;;;6105790;28;80807;-63
2022/01/19 11:29:43;;;;;;;16.55;8.10;;;25.60;44.30;;;;;;6104397;28;80413;-65
2022/01/19 11:32:43;;;;;;;18.40;8.88;;;25.60;44.30;;;;;;6103110;28;80940;-66
2022/01/19 11:35:44;;;;;;;12.45;6.70;;;25.60;43.90;;;;;;6101080;28;80617;-63
2022/01/19 11:38:44;;;;;;;16.15;7.32;;;25.70;44.90;;;;;;6098940;28;81396;-67
2022/01/19 11:41:45;;;;;;;12.48;6.97;;;25.70;43.80;;;;;;6100793;28;80965;-68
2022/01/19 11:44:45;;;;;;;16.05;7.18;;;25.70;44.00;;;;;;6107710;28;81098;-66
2022/01/19 11:47:46;;;;;;;13.63;7.32;;;25.80;43.40;;;;;;6109301;28;80829;-66
2022/01/19 11:50:46;;;;;;;17.35;7.30;;;25.80;42.80;;;;;;6110302;28;80691;-67
2022/01/19 11:53:47;;;;;;;17.23;6.78;;;25.80;42.50;;;;;;6107659;28;80647;-67
2022/01/19 11:56:47;;;;;;;15.23;6.43;;;25.70;42.60;;;;;;6068371;28;83078;-67
2022/01/19 11:59:48;;;;;;;12.45;6.72;;;25.70;42.20;;;;;;6105615;28;80702;-65
2022/01/19 12:02:48;;;;;;;15.45;7.35;;;25.80;42.70;;;;;;6080727;28;80486;-65
2022/01/19 12:05:50;;;;;;;11.68;6.40;;;25.70;42.10;;;;;;6098401;28;80622;-67
2022/01/19 12:08:51;;;;;;;10.85;5.97;;;25.80;42.30;;;;;;6103159;28;82934;-68
2022/01/19 12:11:53;;;;;;;13.60;5.68;;;25.80;42.20;;;;;;6106202;28;81749;-69
2022/01/19 12:14:54;;;;;;;11.55;5.60;;;25.80;42.00;;;;;;6103570;28;80426;-68
2022/01/19 12:18:01;;;;;;;11.65;5.70;;;25.80;41.90;;;;;;6096417;28;80795;-67
2022/01/19 12:21:01;;;;;;;8.75;5.15;;;25.80;42.00;;;;;;6104838;28;80678;-63
2022/01/19 12:24:02;;;;;;;9.18;5.03;;;25.90;42.30;;;;;;6105544;28;80506;-67
2022/01/19 12:27:02;;;;;;;8.55;5.20;;;25.90;42.20;;;;;;6103498;28;80605;-67
2022/01/19 12:30:03;;;;;;;7.28;4.72;;;25.90;42.30;;;;;;6095945;28;80607;-66
2022/01/19 12:33:03;;;;;;;8.82;4.82;;;25.90;42.50;;;;;;6105136;28;80906;-67
2022/01/19 12:36:04;;;;;;;10.82;5.30;;;25.80;42.50;;;;;;6105464;28;80422;-67
2022/01/19 12:39:05;;;;;;;9.40;4.88;;;25.90;42.50;;;;;;6107791;28;81601;-66
2022/01/19 12:42:05;;;;;;;8.10;5.00;;;25.80;42.50;;;;;;6103463;28;80407;-67
2022/01/19 12:45:06;;;;;;;8.13;4.50;;;25.80;42.30;;;;;;6103308;28;81125;-67
2022/01/19 12:48:06;;;;;;;8.65;4.40;;;25.90;42.60;;;;;;6103634;28;80358;-67
2022/01/19 12:51:07;;;;;;;7.35;4.35;;;25.90;42.40;;;;;;6108358;28;80355;-67
2022/01/19 12:54:07;;;;;;;7.90;4.47;;;26.00;42.60;;;;;;6109749;28;80633;-68
2022/01/19 12:57:13;;;;;;;7.28;4.57;;;26.00;42.60;;;;;;6108932;28;82693;-68
2022/01/19 13:00:13;;;;;;;9.48;5.03;;;25.90;42.50;;;;;;6090124;28;81593;-68
2022/01/19 13:03:14;;;;;;;9.18;4.53;;;26.00;42.60;;;;;;6100243;28;83585;-67
2022/01/19 13:06:15;;;;;;;6.43;4.28;;;26.00;42.70;;;;;;6102603;28;80180;-66
2022/01/19 13:09:25;;;;;;;9.90;5.07;;;26.20;42.70;;;;;;6106114;28;81175;-67
2022/01/19 13:12:27;;;;;;;9.15;4.95;;;26.40;42.20;;;;;;6106950;28;81690;-67
2022/01/19 13:15:27;;;;;;;8.07;4.85;;;26.80;41.80;;;;;;6107019;28;81600;-67
2022/01/19 13:18:28;;;;;;;9.18;4.53;;;27.30;41.00;;;;;;6105042;28;81156;-67
2022/01/19 13:21:28;;;;;;;10.15;4.63;;;27.50;40.90;;;;;;6102429;28;80291;-66
2022/01/19 13:24:30;;;;;;;23.08;4.95;;;27.70;40.60;;;;;;6104778;28;80541;-66
2022/01/19 13:27:31;;;;;;;12.18;5.22;;;27.80;40.30;;;;;;6090996;28;81982;-65
2022/01/19 13:30:32;;;;;;;9.10;4.80;;;28.00;40.20;;;;;;6086302;28;81992;-66
2022/01/19 13:33:32;;;;;;;17.75;9.82;;;28.00;40.70;;;;;;6104271;28;80260;-72
2022/01/19 13:36:33;;;;;;;20.80;10.75;;;27.80;32.70;;;;;;6106593;28;80905;-68
2022/01/19 13:39:34;;;;;;;22.90;11.73;;;27.10;30.00;;;;;;6099110;28;83988;-68
2022/01/19 13:42:36;;;;;;;24.48;13.45;;;26.60;29.70;;;;;;6104401;28;84418;-67
2022/01/19 13:45:48;;;;;;;16.42;8.70;;;26.30;30.40;;;;;;6101659;28;83176;-68
2022/01/19 13:48:49;;;;;;;16.00;8.27;;;26.40;33.70;;;;;;6108487;28;83506;-67
2022/01/19 13:51:49;;;;;;;13.57;7.68;;;26.70;34.80;;;;;;6105561;28;82669;-67
2022/01/19 13:54:50;;;;;;;12.68;7.10;;;26.70;35.40;;;;;;6104170;28;80493;-67
2022/01/19 13:57:50;;;;;;;11.70;6.65;;;26.80;36.30;;;;;;6101931;28;81382;-67
2022/01/19 14:00:51;;;;;;;14.43;8.13;;;26.90;36.80;;;;;;6108783;28;80595;-67
2022/01/19 14:03:52;;;;;;;14.10;8.10;;;26.80;35.50;;;;;;6107491;28;80453;-67
2022/01/19 14:06:52;;;;;;;21.77;9.75;;;26.80;35.40;;;;;;6094278;28;81811;-68
2022/01/19 14:09:53;;;;;;;14.10;8.40;;;26.80;35.30;;;;;;6097196;28;80452;-67
2022/01/19 14:12:54;;;;;;;14.40;9.02;;;26.60;35.40;;;;;;6094435;28;80481;-65
2022/01/19 14:15:54;;;;;;;19.38;8.45;;;26.50;35.20;;;;;;6094259;28;81406;-65
2022/01/19 14:18:55;;;;;;;21.63;9.13;;;26.40;35.30;;;;;;6099506;28;80635;-65
2022/01/19 14:21:55;;;;;;;15.63;8.55;;;26.30;35.10;;;;;;6088852;28;81493;-65
2022/01/19 14:24:56;;;;;;;16.95;9.02;;;26.20;35.20;;;;;;6103028;28;81005;-64
2022/01/19 14:27:58;;;;;;;17.42;8.70;;;26.10;35.50;;;;;;6104377;28;80763;-65
2022/01/19 14:30:58;;;;;;;16.13;8.30;;;26.00;35.50;;;;;;6103108;28;81012;-69
2022/01/19 14:33:59;;;;;;;15.20;7.15;;;25.70;36.00;;;;;;6109958;28;81663;-67
2022/01/19 14:36:59;;;;;;;12.95;7.55;;;25.50;37.50;;;;;;6092316;28;81646;-67
2022/01/19 14:40:00;;;;;;;11.82;6.55;;;25.30;38.40;;;;;;6108346;28;80425;-68
2022/01/19 14:43:00;;;;;;;13.05;6.70;;;25.20;39.80;;;;;;6094158;28;80877;-68
2022/01/19 14:46:05;;;;;;;12.48;6.55;;;25.10;39.80;;;;;;6101795;28;80501;-66
2022/01/19 14:49:05;;;;;;;11.63;6.13;;;24.90;40.60;;;;;;6110655;28;80478;-67
2022/01/19 14:52:06;;;;;;;10.60;5.65;;;24.90;41.30;;;;;;6111899;28;80496;-68
2022/01/19 14:55:06;;;;;;;11.35;5.72;;;24.70;41.50;;;;;;6093014;28;83264;-69
2022/01/19 14:58:07;;;;;;;11.15;5.85;;;24.60;41.80;;;;;;6109934;28;82037;-70
2022/01/19 15:01:08;;;;;;;9.73;5.60;;;24.60;42.60;;;;;;6104404;28;80486;-67
2022/01/19 15:04:08;;;;;;;10.07;5.72;;;24.50;42.90;;;;;;6095339;28;83216;-68
2022/01/19 15:07:10;;;;;;;8.02;5.03;;;24.40;43.30;;;;;;6108656;28;81791;-69
2022/01/19 15:10:10;;;;;;;10.57;6.05;;;24.40;43.50;;;;;;6101609;28;81270;-68
2022/01/19 15:13:11;;;;;;;9.90;6.10;;;24.30;42.90;;;;;;6109901;28;80756;-68
2022/01/19 15:16:11;;;;;;;10.95;5.40;;;24.30;43.60;;;;;;6108387;28;80517;-69
2022/01/19 15:19:12;;;;;;;10.27;5.28;;;24.20;43.80;;;;;;6110866;28;81124;-70
2022/01/19 15:22:12;;;;;;;9.02;5.43;;;24.20;43.80;;;;;;6102608;28;81247;-69
2022/01/19 15:25:13;;;;;;;9.90;5.78;;;24.10;44.10;;;;;;6103831;28;81492;-68
2022/01/19 15:28:13;;;;;;;8.93;5.60;;;24.10;44.30;;;;;;6098443;28;81055;-68
2022/01/19 15:31:14;;;;;;;8.82;5.07;;;24.10;43.70;;;;;;6095580;28;80316;-68
2022/01/19 15:34:15;;;;;;;13.07;5.35;;;24.10;44.00;;;;;;6081636;28;81031;-68
2022/01/19 15:37:16;;;;;;;12.13;5.13;;;24.00;44.20;;;;;;6086244;28;81515;-66
2022/01/19 15:40:16;;;;;;;12.48;6.10;;;24.00;44.20;;;;;;6091101;28;80967;-65
2022/01/19 15:43:18;;;;;;;16.08;8.45;;;24.00;43.60;;;;;;6110547;28;80767;-67
2022/01/19 15:46:18;;;;;;;130.35;60.63;;;23.90;43.90;;;;;;6111371;28;81740;-67
2022/01/19 15:49:19;;;;;;;163.95;73.38;;;24.00;44.40;;;;;;6099441;28;84316;-67
2022/01/19 15:52:19;;;;;;;120.45;56.80;;;23.90;44.00;;;;;;6092586;28;84882;-68
2022/01/19 15:55:20;;;;;;;125.00;62.45;;;24.00;44.30;;;;;;6097265;28;83883;-67
2022/01/19 15:58:20;;;;;;;195.95;93.50;;;24.00;44.50;;;;;;6103238;28;83083;-66
2022/01/19 16:01:21;;;;;;;229.27;112.63;;;23.90;44.60;;;;;;6104919;28;83322;-67
2022/01/19 16:04:23;;;;;;;208.40;101.32;;;23.90;44.40;;;;;;6090837;28;85458;-65
2022/01/19 16:07:23;;;;;;;170.23;85.20;;;23.90;44.60;;;;;;6095665;28;85770;-67
2022/01/19 16:10:24;;;;;;;138.35;70.70;;;23.90;44.50;;;;;;6094303;28;86590;-69
2022/01/19 16:13:24;;;;;;;124.43;59.08;;;23.90;44.40;;;;;;6096192;28;84040;-69
2022/01/19 16:16:26;;;;;;;94.18;48.03;;;23.90;44.30;;;;;;6089935;28;83181;-70
2022/01/19 16:19:29;;;;;;;91.38;42.03;;;23.90;44.50;;;;;;6104225;28;83582;-69
2022/01/19 16:26:07;;;;;;;60.38;30.00;;;23.80;44.30;;;;;;6104532;28;83544;-68
2022/01/19 16:29:08;;;;;;;53.95;27.70;;;23.80;44.10;;;;;;6106393;28;83456;-69
2022/01/19 16:32:08;;;;;;;45.33;25.50;;;23.80;45.00;;;;;;6076514;28;85871;-68
2022/01/19 16:35:09;;;;;;;54.85;25.67;;;23.80;44.30;;;;;;6097285;28;87694;-69
2022/01/19 16:38:09;;;;;;;42.05;21.17;;;23.80;44.40;;;;;;6096535;28;83996;-71
2022/01/19 16:41:11;;;;;;;46.03;21.30;;;23.80;44.30;;;;;;6100042;28;83531;-68
2022/01/19 16:44:12;;;;;;;33.90;18.85;;;23.80;44.30;;;;;;6098697;28;83299;-68
2022/01/19 16:47:12;;;;;;;36.08;17.90;;;23.80;44.80;;;;;;6097562;28;82951;-67
2022/01/19 16:50:13;;;;;;;39.70;18.75;;;23.70;44.50;;;;;;6085551;28;83156;-67
2022/01/19 16:53:13;;;;;;;28.70;15.23;;;23.80;44.30;;;;;;6103099;28;82898;-67
2022/01/19 16:56:14;;;;;;;26.73;15.50;;;23.80;44.90;;;;;;6101413;28;83129;-68